createdAt,value
2018-06-29T00:00:16.522Z,97166.77
2018-06-29T00:02:45.735Z,97171.02
2018-06-29T00:05:15.148Z,97165.95
2018-06-29T00:07:44.456Z,97162.11
2018-06-29T00:10:23.351Z,97167.01
2018-06-29T00:12:53.043Z,97164.19
2018-06-29T00:15:22.750Z,97167.31
2018-06-29T00:17:52.035Z,97168.93
2018-06-29T00:20:21.217Z,97171.80
2018-06-29T00:22:50.480Z,97164.02
2018-06-29T00:25:19.883Z,97163.22
2018-06-29T00:27:49.478Z,97164.67
2018-06-29T00:30:18.818Z,97163.88
2018-06-29T00:32:48.020Z,97155.91
2018-06-29T00:35:17.407Z,97152.36
2018-06-29T00:37:46.620Z,97156.16
2018-06-29T00:40:15.975Z,97151.55
2018-06-29T00:42:45.623Z,97154.02
2018-06-29T00:45:14.910Z,97154.17
2018-06-29T00:47:44.320Z,97151.55
2018-06-29T00:50:14.001Z,97153.51
2018-06-29T00:52:43.198Z,97160.58
2018-06-29T00:55:12.400Z,97153.51
2018-06-29T00:57:41.694Z,97153.51
2018-06-29T01:00:11.267Z,97159.86
2018-06-29T01:02:40.478Z,97156.98
2018-06-29T01:05:09.667Z,97159.05
2018-06-29T01:07:38.847Z,97155.27
2018-06-29T01:10:08.055Z,97161.78
2018-06-29T01:12:37.379Z,97163.45
2018-06-29T01:15:06.867Z,97156.22
2018-06-29T01:17:36.159Z,97169.23
2018-06-29T01:20:05.414Z,97159.80
2018-06-29T01:22:34.602Z,97167.20
2018-06-29T01:25:03.898Z,97170.40
2018-06-29T01:27:33.047Z,97173.91
2018-06-29T01:30:02.231Z,97166.70
2018-06-29T01:32:31.427Z,97169.42
2018-06-29T01:35:00.624Z,97166.70
2018-06-29T01:37:30.136Z,97159.30
2018-06-29T01:39:59.367Z,97160.88
2018-06-29T01:42:28.552Z,97152.09
2018-06-29T01:44:57.771Z,97152.23
2018-06-29T01:47:26.951Z,97144.53
2018-06-29T01:49:56.755Z,97146.14
2018-06-29T01:52:25.935Z,97145.89
2018-06-29T01:54:55.501Z,97151.04
2018-06-29T01:57:24.720Z,97153.34
2018-06-29T01:59:54.123Z,97152.12
2018-06-29T02:02:23.323Z,97144.33
2018-06-29T02:04:52.829Z,97145.17
2018-06-29T02:07:22.015Z,97138.49
2018-06-29T02:09:51.395Z,97139.72
2018-06-29T02:12:20.599Z,97133.32
2018-06-29T02:14:50.031Z,97133.29
2018-06-29T02:17:19.255Z,97132.19
2018-06-29T02:19:48.474Z,97131.79
2018-06-29T02:22:17.692Z,97136.13
2018-06-29T02:24:46.971Z,97139.33
2018-06-29T02:27:16.170Z,97135.60
2018-06-29T02:29:45.376Z,97138.44
2018-06-29T02:32:14.567Z,97136.97
2018-06-29T02:34:43.731Z,97139.30
2018-06-29T02:37:13.083Z,97131.02
2018-06-29T02:39:42.266Z,97130.95
2018-06-29T02:44:43.435Z,97125.00
2018-06-29T02:47:12.643Z,97120.52
2018-06-29T02:49:41.826Z,97113.58
2018-06-29T02:52:11.044Z,97112.47
2018-06-29T02:54:40.327Z,97115.55
2018-06-29T02:57:09.583Z,97112.68
2018-06-29T02:59:38.803Z,97114.77
2018-06-29T03:02:08.025Z,97116.99
2018-06-29T03:04:37.800Z,97117.49
2018-06-29T03:07:07.333Z,97119.35
2018-06-29T03:09:36.503Z,97116.02
2018-06-29T03:12:05.706Z,97110.42
2018-06-29T03:14:34.867Z,97098.97
2018-06-29T03:17:04.092Z,97109.15
2018-06-29T03:19:33.312Z,97101.83
2018-06-29T03:22:02.640Z,97108.12
2018-06-29T03:24:31.796Z,97092.33
2018-06-29T03:27:01.035Z,97100.20
2018-06-29T03:29:30.422Z,97109.02
2018-06-29T03:31:59.622Z,97107.03
2018-06-29T03:34:28.791Z,97110.59
2018-06-29T03:36:58.302Z,97108.21
2018-06-29T03:39:27.475Z,97105.67
2018-06-29T03:41:57.135Z,97110.52
2018-06-29T03:44:26.320Z,97111.48
2018-06-29T03:46:55.512Z,97107.29
2018-06-29T03:49:24.715Z,97106.78
2018-06-29T03:51:54.291Z,97105.28
2018-06-29T03:54:23.465Z,97107.59
2018-06-29T03:56:53.003Z,97112.32
2018-06-29T03:59:22.173Z,97110.63
2018-06-29T04:01:51.371Z,97111.38
2018-06-29T04:04:20.625Z,97112.21
2018-06-29T04:06:50.038Z,97110.18
2018-06-29T04:09:19.221Z,97112.30
2018-06-29T04:11:48.475Z,97116.13
2018-06-29T04:14:17.619Z,97111.87
2018-06-29T04:16:46.807Z,97110.38
2018-06-29T04:19:16.434Z,97111.07
2018-06-29T04:21:45.608Z,97111.80
2018-06-29T04:24:14.841Z,97112.48
2018-06-29T04:26:44.011Z,97115.88
2018-06-29T04:29:13.202Z,97118.08
2018-06-29T04:31:42.843Z,97128.03
2018-06-29T04:34:12.083Z,97120.89
2018-06-29T04:36:41.319Z,97122.72
2018-06-29T04:39:11.591Z,97122.56
2018-06-29T04:41:40.767Z,97119.08
2018-06-29T04:44:10.103Z,97127.42
2018-06-29T04:46:39.393Z,97122.69
2018-06-29T04:49:08.579Z,97116.38
2018-06-29T04:51:37.963Z,97122.08
2018-06-29T04:54:07.139Z,97119.80
2018-06-29T04:56:36.342Z,97122.94
2018-06-29T04:59:05.636Z,97123.05
2018-06-29T05:01:34.839Z,97123.44
2018-06-29T05:04:04.080Z,97121.28
2018-06-29T05:06:33.279Z,97121.58
2018-06-29T05:09:02.465Z,97123.72
2018-06-29T05:11:31.671Z,97122.20
2018-06-29T05:14:00.854Z,97128.97
2018-06-29T05:16:30.056Z,97120.88
2018-06-29T05:18:59.564Z,97121.16
2018-06-29T05:21:29.170Z,97127.15
2018-06-29T05:23:58.403Z,97128.61
2018-06-29T05:26:28.456Z,97127.15
2018-06-29T05:28:57.623Z,97123.80
2018-06-29T05:31:27.127Z,97129.95
2018-06-29T05:33:56.699Z,97127.69
2018-06-29T05:36:25.919Z,97125.53
2018-06-29T05:38:55.458Z,97123.69
2018-06-29T05:41:24.731Z,97123.20
2018-06-29T05:43:53.867Z,97126.08
2018-06-29T05:46:23.087Z,97133.55
2018-06-29T05:48:52.572Z,97131.02
2018-06-29T05:51:21.775Z,97137.39
2018-06-29T05:53:50.970Z,97135.14
2018-06-29T05:56:20.151Z,97132.88
2018-06-29T05:58:49.484Z,97120.31
2018-06-29T06:01:18.690Z,97123.03
2018-06-29T06:03:47.851Z,97123.32
2018-06-29T06:06:17.368Z,97125.81
2018-06-29T06:08:46.547Z,97129.73
2018-06-29T06:11:16.660Z,97127.98
2018-06-29T06:13:45.851Z,97133.34
2018-06-29T06:16:15.064Z,97130.72
2018-06-29T06:18:44.232Z,97118.36
2018-06-29T06:21:13.447Z,97125.16
2018-06-29T06:23:42.615Z,97118.79
2018-06-29T06:26:11.821Z,97118.63
2018-06-29T06:28:41.182Z,97118.77
2018-06-29T06:31:11.008Z,97114.73
2018-06-29T06:33:40.195Z,97114.94
2018-06-29T06:36:09.388Z,97108.54
2018-06-29T06:38:38.563Z,97107.78
2018-06-29T06:41:08.285Z,97107.47
2018-06-29T06:43:37.463Z,97106.69
2018-06-29T06:46:06.695Z,97111.98
2018-06-29T06:48:35.907Z,97106.17
2018-06-29T06:51:05.160Z,97101.95
2018-06-29T06:53:34.931Z,97108.97
2018-06-29T06:56:04.285Z,97103.29
2018-06-29T06:58:33.451Z,97110.97
2018-06-29T07:01:02.936Z,97111.48
2018-06-29T07:03:32.259Z,97116.63
2018-06-29T07:06:01.510Z,97120.03
2018-06-29T07:08:30.712Z,97115.91
2018-06-29T07:11:00.235Z,97125.42
2018-06-29T07:13:29.455Z,97126.55
2018-06-29T07:15:58.631Z,97117.63
2018-06-29T07:18:27.839Z,97111.48
2018-06-29T07:20:57.191Z,97109.20
2018-06-29T07:23:26.423Z,97105.35
2018-06-29T07:25:55.637Z,97105.04
2018-06-29T07:28:25.314Z,97105.80
2018-06-29T07:30:54.751Z,97101.61
2018-06-29T07:33:24.396Z,97099.75
2018-06-29T07:35:53.716Z,97103.48
2018-06-29T07:38:22.903Z,97103.02
2018-06-29T07:40:52.215Z,97109.87
2018-06-29T07:43:21.427Z,97099.97
2018-06-29T07:45:50.611Z,97102.50
2018-06-29T07:48:22.936Z,97102.04
2018-06-29T07:50:52.124Z,97097.33
2018-06-29T07:53:21.543Z,97097.37
2018-06-29T07:55:50.829Z,97105.31
2018-06-29T07:58:20.368Z,97100.73
2018-06-29T08:00:49.535Z,97095.45
2018-06-29T08:03:18.963Z,97095.73
2018-06-29T08:05:48.700Z,97098.63
2018-06-29T08:08:17.890Z,97096.64
2018-06-29T08:10:47.319Z,97101.28
2018-06-29T08:13:16.528Z,97104.97
2018-06-29T08:15:45.707Z,97101.52
2018-06-29T08:18:14.884Z,97105.54
2018-06-29T08:20:44.609Z,97104.27
2018-06-29T08:23:13.769Z,97095.70
2018-06-29T08:25:42.991Z,97093.01
2018-06-29T08:28:12.311Z,97092.33
2018-06-29T08:30:41.531Z,97093.62
2018-06-29T08:33:11.144Z,97085.90
2018-06-29T08:35:40.666Z,97094.28
2018-06-29T08:38:09.867Z,97087.97
2018-06-29T08:40:39.079Z,97094.43
2018-06-29T08:43:08.579Z,97087.79
2018-06-29T08:45:37.813Z,97093.58
2018-06-29T08:48:07.671Z,97092.45
2018-06-29T08:50:36.899Z,97092.44
2018-06-29T08:53:06.080Z,97095.08
2018-06-29T08:55:35.313Z,97103.13
2018-06-29T08:58:04.495Z,97096.00
2018-06-29T09:00:33.731Z,97089.92
2018-06-29T09:03:03.168Z,97097.66
2018-06-29T09:05:32.362Z,97086.16
2018-06-29T09:08:01.552Z,97090.25
2018-06-29T09:10:30.743Z,97096.00
2018-06-29T09:12:59.939Z,97085.48
2018-06-29T09:15:29.351Z,97096.62
2018-06-29T09:17:58.540Z,97091.23
2018-06-29T09:20:27.887Z,97095.45
2018-06-29T09:22:57.083Z,97082.24
2018-06-29T09:25:26.895Z,97085.74
2018-06-29T09:27:56.317Z,97078.00
2018-06-29T09:30:25.807Z,97074.94
2018-06-29T09:32:55.338Z,97072.48
2018-06-29T09:35:24.536Z,97077.07
2018-06-29T09:37:53.888Z,97067.56
2018-06-29T09:40:23.115Z,97068.20
2018-06-29T09:42:52.407Z,97068.96
2018-06-29T09:45:22.199Z,97059.02
2018-06-29T09:47:51.413Z,97067.97
2018-06-29T09:50:20.583Z,97071.82
2018-06-29T09:52:49.811Z,97057.20
2018-06-29T09:55:19.708Z,97060.92
2018-06-29T09:57:48.907Z,97058.27
2018-06-29T10:00:33.077Z,97055.64
2018-06-29T10:03:02.253Z,97055.72
2018-06-29T10:05:31.459Z,97055.32
2018-06-29T10:08:00.749Z,97046.45
2018-06-29T10:10:29.917Z,97047.25
2018-06-29T10:12:59.145Z,97060.06
2018-06-29T10:15:28.352Z,97041.41
2018-06-29T10:17:57.564Z,97048.00
2018-06-29T10:20:26.767Z,97043.66
2018-06-29T10:22:56.375Z,97048.59
2018-06-29T10:25:25.609Z,97042.98
2018-06-29T10:27:54.834Z,97038.63
2018-06-29T10:30:24.199Z,97038.31
2018-06-29T10:32:53.415Z,97035.86
2018-06-29T10:35:23.226Z,97035.75
2018-06-29T10:37:52.471Z,97036.84
2018-06-29T10:40:21.761Z,97044.99
2018-06-29T10:42:51.111Z,97044.98
2018-06-29T10:45:20.275Z,97030.58
2018-06-29T10:47:49.599Z,97036.08
2018-06-29T10:50:18.796Z,97031.65
2018-06-29T10:52:48.354Z,97029.43
2018-06-29T10:55:17.583Z,97022.37
2018-06-29T10:57:46.775Z,97021.45
2018-06-29T11:00:15.967Z,97014.69
2018-06-29T11:02:45.167Z,97014.65
2018-06-29T11:05:14.359Z,97010.04
2018-06-29T11:07:43.643Z,97011.84
2018-06-29T11:10:12.828Z,97009.48
2018-06-29T11:12:42.063Z,97010.42
2018-06-29T11:15:11.277Z,97006.77
2018-06-29T11:17:40.619Z,97001.33
2018-06-29T11:20:09.943Z,96999.91
2018-06-29T11:22:39.337Z,97003.69
2018-06-29T11:25:08.815Z,97001.38
2018-06-29T11:27:38.015Z,96994.34
2018-06-29T11:30:07.249Z,96995.98
2018-06-29T11:32:36.411Z,96988.55
2018-06-29T11:35:05.811Z,96992.39
2018-06-29T11:37:34.990Z,96983.90
2018-06-29T11:40:05.071Z,96983.37
2018-06-29T11:42:34.289Z,96981.38
2018-06-29T11:45:03.502Z,96981.08
2018-06-29T11:47:32.710Z,96978.60
2018-06-29T11:50:01.933Z,96980.38
2018-06-29T11:52:31.297Z,96973.63
2018-06-29T11:55:00.616Z,96972.81
2018-06-29T11:57:29.798Z,96963.44
2018-06-29T11:59:58.999Z,96979.81
2018-06-29T12:02:28.287Z,96968.30
2018-06-29T12:04:57.471Z,96972.38
2018-06-29T12:07:26.657Z,96968.67
2018-06-29T12:09:55.891Z,96969.41
2018-06-29T12:12:25.188Z,96961.83
2018-06-29T12:14:54.780Z,96964.09
2018-06-29T12:17:24.032Z,96954.55
2018-06-29T12:19:53.231Z,96946.69
2018-06-29T12:22:22.847Z,96956.56
2018-06-29T12:24:52.476Z,96957.06
2018-06-29T12:27:21.695Z,96948.52
2018-06-29T12:29:50.950Z,96947.38
2018-06-29T12:32:20.283Z,96949.89
2018-06-29T12:34:49.597Z,96945.11
2018-06-29T12:37:18.823Z,96932.73
2018-06-29T12:39:48.093Z,96932.45
2018-06-29T12:42:17.738Z,96938.19
2018-06-29T12:44:47.459Z,96930.92
2018-06-29T12:47:16.814Z,96938.95
2018-06-29T12:49:46.419Z,96931.64
2018-06-29T12:52:15.631Z,96923.18
2018-06-29T12:54:44.915Z,96919.53
2018-06-29T12:57:14.282Z,96918.09
2018-06-29T12:59:43.508Z,96913.70
2018-06-29T13:02:12.779Z,96911.30
2018-06-29T13:04:42.014Z,96909.48
2018-06-29T13:07:11.351Z,96910.22
2018-06-29T13:09:40.614Z,96907.02
2018-06-29T13:12:09.967Z,96911.23
2018-06-29T13:14:39.489Z,96905.95
2018-06-29T13:17:08.856Z,96907.63
2018-06-29T13:19:38.040Z,96899.02
2018-06-29T13:22:07.252Z,96894.91
2018-06-29T13:24:36.867Z,96887.17
2018-06-29T13:27:06.073Z,96895.51
2018-06-29T13:29:35.247Z,96880.39
2018-06-29T13:32:04.471Z,96880.48
2018-06-29T13:34:33.831Z,96881.61
2018-06-29T13:37:03.452Z,96880.42
2018-06-29T13:39:32.680Z,96881.64
2018-06-29T13:42:02.399Z,96874.31
2018-06-29T13:44:32.322Z,96873.12
2018-06-29T13:47:01.579Z,96877.41
2018-06-29T13:49:30.912Z,96878.14
2018-06-29T13:52:00.152Z,96873.52
2018-06-29T13:54:29.452Z,96879.69
2018-06-29T13:56:59.023Z,96871.02
2018-06-29T13:59:28.818Z,96867.99
2018-06-29T14:01:58.131Z,96862.17
2018-06-29T14:04:27.979Z,96861.72
2018-06-29T14:06:57.271Z,96862.20
2018-06-29T14:09:27.043Z,96854.92
2018-06-29T14:11:56.366Z,96859.52
2018-06-29T14:14:25.642Z,96856.33
2018-06-29T14:16:55.004Z,96859.48
2018-06-29T14:19:24.215Z,96859.94
2018-06-29T14:21:53.893Z,96860.34
2018-06-29T14:24:23.283Z,96851.50
2018-06-29T14:26:52.503Z,96850.69
2018-06-29T14:29:21.925Z,96842.38
2018-06-29T14:31:51.197Z,96839.00
2018-06-29T14:34:20.780Z,96849.44
2018-06-29T14:36:50.080Z,96845.38
2018-06-29T14:39:20.197Z,96837.91
2018-06-29T14:41:49.427Z,96834.89
2018-06-29T14:44:18.760Z,96837.25
2018-06-29T14:46:48.367Z,96835.25
2018-06-29T14:49:17.559Z,96836.45
2018-06-29T14:51:47.516Z,96839.66
2018-06-29T14:54:18.627Z,96825.97
2018-06-29T14:56:50.891Z,96821.42
2018-06-29T14:59:24.346Z,96827.77
2018-06-29T15:01:54.263Z,96818.55
2018-06-29T15:04:23.773Z,96817.98
2018-06-29T15:06:53.103Z,96815.73
2018-06-29T15:09:23.252Z,96807.59
2018-06-29T15:11:52.384Z,96801.55
2018-06-29T15:14:21.574Z,96802.59
2018-06-29T15:16:50.787Z,96805.34
2018-06-29T15:19:20.044Z,96801.34
2018-06-29T15:21:49.234Z,96800.63
2018-06-29T15:24:18.435Z,96804.00
2018-06-29T15:26:47.794Z,96799.18
2018-06-29T15:29:17.034Z,96801.88
2018-06-29T15:31:46.212Z,96799.30
2018-06-29T15:34:15.403Z,96793.42
2018-06-29T15:36:44.584Z,96791.64
2018-06-29T15:39:14.167Z,96786.90
2018-06-29T15:41:43.350Z,96781.11
2018-06-29T15:44:12.551Z,96787.77
2018-06-29T15:46:41.731Z,96786.41
2018-06-29T15:49:10.983Z,96787.09
2018-06-29T15:51:40.527Z,96789.02
2018-06-29T15:54:10.267Z,96781.31
2018-06-29T15:56:41.420Z,96790.92
2018-06-29T15:59:10.611Z,96782.31
2018-06-29T16:01:40.359Z,96784.80
2018-06-29T16:04:10.443Z,96779.34
2018-06-29T16:06:40.609Z,96786.54
2018-06-29T16:09:11.358Z,96780.84
2018-06-29T16:11:40.544Z,96772.61
2018-06-29T16:14:10.676Z,96775.20
2018-06-29T16:16:40.203Z,96777.17
2018-06-29T16:19:09.886Z,96774.60
2018-06-29T16:21:39.919Z,96778.75
2018-06-29T16:24:10.020Z,96778.66
2018-06-29T16:26:40.064Z,96782.80
2018-06-29T16:29:09.649Z,96772.48
2018-06-29T16:31:39.287Z,96772.13
2018-06-29T16:34:08.698Z,96767.97
2018-06-29T16:36:38.201Z,96771.29
2018-06-29T16:39:09.695Z,96776.23
2018-06-29T16:41:40.313Z,96775.45
2018-06-29T16:44:11.037Z,96777.77
2018-06-29T16:46:40.340Z,96775.16
2018-06-29T16:49:10.680Z,96779.15
2018-06-29T16:51:39.891Z,96776.61
2018-06-29T16:54:09.075Z,96776.19
2018-06-29T16:56:38.296Z,96775.02
2018-06-29T16:59:07.508Z,96774.33
2018-06-29T17:01:36.703Z,96773.50
2018-06-29T17:04:06.273Z,96770.14
2018-06-29T17:06:35.495Z,96775.05
2018-06-29T17:09:06.575Z,96773.56
2018-06-29T17:11:35.875Z,96769.91
2018-06-29T17:14:05.099Z,96774.25
2018-06-29T17:16:34.356Z,96777.05
2018-06-29T17:19:06.117Z,96779.97
2018-06-29T17:21:36.540Z,96771.92
2018-06-29T17:24:07.707Z,96772.96
2018-06-29T17:26:37.632Z,96766.67
2018-06-29T17:29:09.063Z,96768.22
2018-06-29T17:31:39.117Z,96763.89
2018-06-29T17:34:09.500Z,96770.33
2018-06-29T17:36:39.156Z,96767.70
2018-06-29T17:39:11.516Z,96767.80
2018-06-29T17:41:41.331Z,96764.14
2018-06-29T17:44:10.931Z,96767.55
2018-06-29T17:46:40.726Z,96771.30
2018-06-29T17:49:10.858Z,96769.67
2018-06-29T17:51:40.814Z,96766.08
2018-06-29T17:54:10.619Z,96761.13
2018-06-29T17:56:41.206Z,96760.16
2018-06-29T17:59:12.343Z,96762.02
2018-06-29T18:01:45.237Z,96766.85
2018-06-29T18:04:14.664Z,96765.88
2018-06-29T18:06:43.879Z,96772.11
2018-06-29T18:09:14.306Z,96778.05
2018-06-29T18:11:43.850Z,96772.17
2018-06-29T18:14:13.200Z,96783.25
2018-06-29T18:16:42.388Z,96779.16
2018-06-29T18:19:12.160Z,96780.84
2018-06-29T18:21:41.971Z,96780.14
2018-06-29T18:24:12.415Z,96780.61
2018-06-29T18:26:42.242Z,96779.75
2018-06-29T18:29:11.455Z,96782.97
2018-06-29T18:31:40.918Z,96783.59
2018-06-29T18:34:11.294Z,96783.47
2018-06-29T18:36:40.553Z,96782.39
2018-06-29T18:39:11.046Z,96780.92
2018-06-29T18:41:40.256Z,96776.81
2018-06-29T18:44:09.479Z,96784.12
2018-06-29T18:46:38.712Z,96780.12
2018-06-29T18:49:09.281Z,96781.23
2018-06-29T18:51:40.083Z,96789.59
2018-06-29T18:54:10.178Z,96780.48
2018-06-29T18:56:40.512Z,96778.20
2018-06-29T18:59:12.083Z,96782.34
2018-06-29T19:01:41.611Z,96782.80
2018-06-29T19:04:10.966Z,96780.70
2018-06-29T19:06:40.217Z,96787.09
2018-06-29T19:09:10.427Z,96789.70
2018-06-29T19:11:39.882Z,96789.91
2018-06-29T19:14:11.286Z,96770.91
2018-06-29T19:16:41.694Z,96784.87
2018-06-29T19:19:13.790Z,96789.34
2018-06-29T19:21:44.668Z,96788.22
2018-06-29T19:24:15.546Z,96791.91
2018-06-29T19:26:44.752Z,96791.07
2018-06-29T19:29:16.350Z,96798.53
2018-06-29T19:31:45.543Z,96797.76
2018-06-29T19:34:14.845Z,96811.06
2018-06-29T19:36:44.047Z,96807.50
2018-06-29T19:39:14.679Z,96810.73
2018-06-29T19:41:43.911Z,96815.56
2018-06-29T19:44:13.118Z,96815.09
2018-06-29T19:46:42.335Z,96819.19
2018-06-29T19:49:12.097Z,96819.75
2018-06-29T19:51:41.291Z,96826.92
2018-06-29T19:54:10.495Z,96824.74
2018-06-29T19:56:39.731Z,96826.45
2018-06-29T19:59:11.065Z,96826.33
2018-06-29T20:01:41.562Z,96826.67
2018-06-29T20:04:14.235Z,96827.55
2018-06-29T20:06:45.944Z,96819.70
2018-06-29T20:09:17.567Z,96827.25
2018-06-29T20:11:48.530Z,96824.78
2018-06-29T20:14:18.802Z,96829.36
2018-06-29T20:16:49.199Z,96831.77
2018-06-29T20:19:22.806Z,96835.34
2018-06-29T20:21:53.376Z,96826.95
2018-06-29T20:24:26.133Z,96835.76
2018-06-29T20:26:57.999Z,96836.13
2018-06-29T20:29:30.868Z,96833.70
2018-06-29T20:32:01.255Z,96827.48
2018-06-29T20:34:31.621Z,96833.03
2018-06-29T20:37:02.481Z,96833.31
2018-06-29T20:39:43.691Z,96833.70
2018-06-29T20:42:14.146Z,96832.58
2018-06-29T20:44:44.503Z,96830.20
2018-06-29T20:47:14.995Z,96828.39
2018-06-29T20:49:47.043Z,96832.19
2018-06-29T20:52:16.778Z,96829.84
2018-06-29T20:54:46.003Z,96834.45
2018-06-29T20:57:15.242Z,96834.39
2018-06-29T20:59:44.852Z,96834.76
2018-06-29T21:02:17.471Z,96836.88
2018-06-29T21:04:47.840Z,96839.09
2018-06-29T21:07:18.281Z,96835.61
2018-06-29T21:09:48.737Z,96836.73
2018-06-29T21:12:19.215Z,96841.11
2018-06-29T21:14:51.360Z,96836.75
2018-06-29T21:17:22.147Z,96839.50
2018-06-29T21:19:53.045Z,96839.69
2018-06-29T21:22:23.768Z,96843.89
2018-06-29T21:24:53.998Z,96841.05
2018-06-29T21:27:24.668Z,96845.90
2018-06-29T21:29:55.360Z,96847.42
2018-06-29T21:32:26.583Z,96844.77
2018-06-29T21:34:56.902Z,96847.83
2018-06-29T21:37:29.397Z,96848.44
2018-06-29T21:40:00.578Z,96843.35
2018-06-29T21:42:31.091Z,96846.73
2018-06-29T21:45:02.439Z,96854.72
2018-06-29T21:47:33.014Z,96853.98
2018-06-29T21:50:05.613Z,96854.97
2018-06-29T21:52:35.703Z,96853.39
2018-06-29T21:55:07.514Z,96856.37
2018-06-29T21:57:37.468Z,96856.86
2018-06-29T22:00:13.032Z,96848.84
2018-06-29T22:02:46.185Z,96849.83
2018-06-29T22:05:17.562Z,96850.63
2018-06-29T22:07:47.420Z,96850.63
2018-06-29T22:10:18.166Z,96850.34
2018-06-29T22:12:48.625Z,96849.88
2018-06-29T22:15:23.541Z,96855.18
2018-06-29T22:17:53.351Z,96854.54
2018-06-29T22:20:25.651Z,96850.20
2018-06-29T22:22:57.141Z,96853.64
2018-06-29T22:25:27.505Z,96853.06
2018-06-29T22:27:57.780Z,96855.70
2018-06-29T22:30:28.238Z,96856.35
2018-06-29T22:32:57.526Z,96855.77
2018-06-29T22:35:26.739Z,96856.12
2018-06-29T22:37:55.984Z,96858.83
2018-06-29T22:40:25.231Z,96847.55
2018-06-29T22:42:54.463Z,96853.86
2018-06-29T22:45:23.770Z,96845.07
2018-06-29T22:47:53.095Z,96847.85
2018-06-29T22:50:22.728Z,96846.73
2018-06-29T22:52:52.423Z,96849.88
2018-06-29T22:55:21.800Z,96846.22
2018-06-29T22:57:50.983Z,96848.33
2018-06-29T23:00:21.088Z,96847.11
2018-06-29T23:02:50.423Z,96853.55
2018-06-29T23:05:19.627Z,96857.56
2018-06-29T23:07:48.807Z,96847.81
2018-06-29T23:10:18.064Z,96849.44
2018-06-29T23:12:47.254Z,96849.98
2018-06-29T23:15:16.515Z,96851.30
2018-06-29T23:17:45.775Z,96847.20
2018-06-29T23:20:16.521Z,96844.13
2018-06-29T23:22:45.783Z,96846.31
2018-06-29T23:25:15.483Z,96846.81
2018-06-29T23:27:44.935Z,96844.40
2018-06-29T23:30:15.524Z,96845.41
2018-06-29T23:32:44.692Z,96841.67
2018-06-29T23:35:14.179Z,96839.53
2018-06-29T23:37:43.439Z,96839.14
2018-06-29T23:40:12.643Z,96843.47
2018-06-29T23:42:41.876Z,96840.92
2018-06-29T23:45:11.087Z,96844.99
2018-06-29T23:47:40.520Z,96848.77
2018-06-29T23:50:09.731Z,96844.16
2018-06-29T23:52:39.665Z,96844.87
2018-06-29T23:55:08.974Z,96842.55
2018-06-29T23:57:38.615Z,96839.38
